メインページ
METAR-TAF:

METAR-TAF

空港 :

バグダード国際空港

バグダード, イラク

緯度: 33-15-45N, 経度: 44-14-04E, 海抜: 35m

現時点の気象観測

当レポートは21分前の10:30(UTC)に作成
南東の風 6kt、からの間で変化する
気温 40°C
湿度 14%
気圧 1008 hPa
視程10km以上
1,500メートル以下は雲なし、積乱雲なし

METAR: ORBI 211030Z 13006KT 100V180 CAVOK 40/07 Q1008

時間: 13:51 (10:51 UTC)

予報

当レポートは6時間51分前の04:00(UTC)に作成
予報は21日の 06時(UTC)から 22日の 06時(UTC)まで有効
変向風 3kt
視程: 8000m

TAF: ORBI 210400Z 2106/2206 VRB03KT 8000 NSC

4,000以上の空港の気象観測と天気予報(METAR報とTAF報)

利用可能な観測所は地図上に黄色い丸と赤い丸で示す。

丸の上にカーソルを重ねると観測所名を参照できる。

次にクリックすると気象観測と天気予報を参照できる。

マップの切り替え:黒色「×」印の緑ボタンをクリックして拡大、「-」印の緑ボタンをクリックして縮小、緑色の三角印をクリックして隣りの地図に切り替え


METAR-TAF: